Time;durP1;ratioP1;P1;durP2;ratioP2;P2;SDS_P1;SDS_P2;PMS_P1;PMS_P2;Temp;Humidity;BMP_temperature;BMP_pressure;BME280_temperature;BME280_humidity;BME280_pressure;Samples;Min_cycle;Max_cycle;Signal;HPM_P1;HPM_P2
2022/07/06 00:01:31;;;;;;;17.25;2.72;;;;;;;23.20;41.51;99184.56;4954608;28;20106;-50
2022/07/06 00:03:57;;;;;;;11.35;1.65;;;;;;;23.21;41.63;99177.34;4954601;28;20027;-49
2022/07/06 00:06:23;;;;;;;10.63;2.42;;;;;;;23.17;41.79;99177.06;4953184;29;20034;-50
2022/07/06 00:08:49;;;;;;;17.15;2.88;;;;;;;23.27;42.00;99182.41;4954525;28;20114;-50
2022/07/06 00:11:15;;;;;;;13.43;2.20;;;;;;;23.39;41.50;99181.31;4954491;28;20027;-50
2022/07/06 00:13:40;;;;;;;10.85;2.13;;;;;;;23.50;41.72;99177.50;4954379;29;20108;-49
2022/07/06 00:16:06;;;;;;;13.90;7.60;;;;;;;23.66;41.72;99176.38;4953014;29;20482;-50
2022/07/06 00:18:32;;;;;;;6.72;1.50;;;;;;;23.69;41.30;99178.50;4952922;29;20028;-50
2022/07/06 00:20:57;;;;;;;3.58;1.50;;;;;;;23.55;41.17;99179.38;4954160;29;20042;-49
2022/07/06 00:23:23;;;;;;;7.03;1.80;;;;;;;23.31;41.44;99178.09;4954212;28;20023;-50
2022/07/06 00:25:49;;;;;;;5.65;1.85;;;;;;;23.07;41.96;99190.47;4954076;28;20023;-49
2022/07/06 00:28:15;;;;;;;12.75;1.50;;;;;;;22.88;42.25;99180.28;4954192;28;20034;-50
2022/07/06 00:30:41;;;;;;;5.50;1.67;;;;;;;22.82;42.60;99176.03;4952799;29;20417;-49
2022/07/06 00:33:07;;;;;;;8.50;1.73;;;;;;;22.78;42.99;99176.81;4954155;28;20034;-49
2022/07/06 00:35:33;;;;;;;8.15;1.65;;;;;;;22.79;42.92;99173.88;4951905;29;20062;-49
2022/07/06 00:37:59;;;;;;;5.90;1.60;;;;;;;22.78;42.86;99182.16;4953132;28;20115;-50
2022/07/06 00:40:25;;;;;;;9.73;1.75;;;;;;;22.71;42.70;99172.53;4953233;28;20024;-50
2022/07/06 00:42:51;;;;;;;9.05;1.83;;;;;;;22.68;42.95;99174.97;4953215;28;20390;-50
2022/07/06 00:45:18;;;;;;;7.70;1.80;;;;;;;22.69;43.21;99176.53;4951866;29;20073;-49
2022/07/06 00:47:45;;;;;;;12.98;2.15;;;;;;;22.68;43.10;99174.97;4951896;29;20031;-49
2022/07/06 00:50:22;;;;;;;9.02;1.73;;;;;;;22.75;43.45;99167.44;4953096;28;20457;-49
2022/07/06 00:52:50;;;;;;;6.57;1.20;;;;;;;22.87;42.99;99169.84;4953126;28;20089;-49
2022/07/06 00:55:19;;;;;;;8.70;1.60;;;;;;;22.92;43.07;99167.97;4953005;28;20023;-49
2022/07/06 00:57:45;;;;;;;12.80;2.05;;;;;;;23.07;42.72;99161.03;4951614;29;20038;-49
2022/07/06 01:00:14;;;;;;;5.85;1.60;;;;;;;23.27;42.52;99165.53;4953017;28;20077;-50
2022/07/06 01:02:40;;;;;;;13.02;2.00;;;;;;;23.30;42.29;99167.66;4951678;29;20031;-50
2022/07/06 01:05:07;;;;;;;8.73;2.13;;;;;;;23.37;41.96;99162.03;4953209;29;20445;-50
2022/07/06 01:07:35;;;;;;;17.17;2.42;;;;;;;23.38;41.97;99174.31;4952888;28;20023;-50
2022/07/06 01:10:03;;;;;;;7.80;1.55;;;;;;;23.38;42.10;99175.16;4951855;29;20030;-50
2022/07/06 01:12:30;;;;;;;11.85;1.85;;;;;;;23.25;42.01;99173.03;4952850;28;20027;-50
2022/07/06 01:14:56;;;;;;;10.48;1.55;;;;;;;23.15;42.07;99173.84;4952876;28;20597;-50
2022/07/06 01:17:23;;;;;;;9.02;1.95;;;;;;;22.98;43.01;99182.16;4952756;28;20066;-49
2022/07/06 01:19:49;;;;;;;13.65;2.15;;;;;;;22.85;43.09;99183.50;4952719;28;20024;-49
2022/07/06 01:22:15;;;;;;;10.18;1.80;;;;;;;22.83;42.84;99176.81;4952681;29;20042;-49
2022/07/06 01:24:41;;;;;;;5.53;1.63;;;;;;;22.76;42.82;99174.41;4952733;28;20078;-49
2022/07/06 01:27:07;;;;;;;10.57;2.08;;;;;;;22.65;43.16;99173.59;4951367;29;20023;-49
2022/07/06 01:29:34;;;;;;;13.60;1.55;;;;;;;22.56;43.53;99174.41;4951324;29;20032;-49
2022/07/06 01:32:01;;;;;;;26.23;2.45;;;;;;;22.47;43.27;99174.13;4951323;29;20050;-49
2022/07/06 01:34:27;;;;;;;16.15;2.22;;;;;;;22.43;43.63;99171.19;4905243;28;1390684;-49
2022/07/06 01:36:54;;;;;;;14.05;1.80;;;;;;;22.57;43.41;99171.47;4953927;28;20039;-49
2022/07/06 01:39:20;;;;;;;9.23;1.80;;;;;;;22.71;43.02;99171.72;4955779;29;20114;-50
2022/07/06 01:41:46;;;;;;;6.53;1.45;;;;;;;22.72;42.93;99168.00;4955883;29;20763;-49
2022/07/06 01:44:11;;;;;;;10.30;1.20;;;;;;;22.64;42.92;99171.22;4955750;29;20027;-49
2022/07/06 01:46:38;;;;;;;8.52;1.77;;;;;;;22.51;42.86;99175.19;4955755;29;20039;-49
2022/07/06 01:49:05;;;;;;;8.32;1.48;;;;;;;22.42;43.46;99171.47;4955730;29;20182;-50
2022/07/06 01:51:30;;;;;;;13.57;1.35;;;;;;;22.41;43.14;99177.88;4955664;29;20026;-49
2022/07/06 01:53:56;;;;;;;11.15;2.13;;;;;;;22.38;43.34;99178.41;4955674;29;20019;-49
2022/07/06 01:56:22;;;;;;;8.77;1.63;;;;;;;22.38;43.29;99176.53;4955577;29;20031;-49
2022/07/06 01:58:48;;;;;;;12.15;2.40;;;;;;;22.38;43.24;99184.56;4955448;29;20034;-49
2022/07/06 02:01:16;;;;;;;6.57;1.30;;;;;;;22.36;42.90;99191.25;4955462;29;20134;-50
2022/07/06 02:03:42;;;;;;;8.88;2.47;;;;;;;22.24;43.09;99191.50;4955468;29;20024;-49
2022/07/06 02:06:09;;;;;;;8.45;1.75;;;;;;;22.10;43.02;99193.84;4955423;29;20042;-49
2022/07/06 02:08:36;;;;;;;10.50;1.65;;;;;;;22.17;42.95;99188.22;4955346;29;20034;-49
2022/07/06 02:11:03;;;;;;;7.55;1.95;;;;;;;22.23;43.02;99193.31;4955294;29;20034;-49
2022/07/06 02:13:29;;;;;;;8.18;1.83;;;;;;;22.17;42.88;99185.56;4956599;28;20047;-50
2022/07/06 02:15:54;;;;;;;13.43;1.58;;;;;;;22.08;42.97;99190.63;4956612;28;20059;-49
2022/07/06 02:18:20;;;;;;;12.30;1.60;;;;;;;22.01;42.69;99180.16;4956370;29;20034;-49
2022/07/06 02:20:46;;;;;;;10.20;1.67;;;;;;;21.95;42.86;99181.22;4955143;29;20035;-50
2022/07/06 02:23:12;;;;;;;15.48;2.20;;;;;;;21.85;42.98;99178.50;4955095;29;20034;-49
2022/07/06 02:25:38;;;;;;;7.47;1.95;;;;;;;21.73;43.19;99174.22;4956328;28;20122;-49
2022/07/06 02:28:04;;;;;;;11.00;2.25;;;;;;;21.72;43.08;99175.25;4956357;29;20042;-49
2022/07/06 02:30:29;;;;;;;12.75;2.35;;;;;;;21.78;42.86;99170.75;4955244;29;20059;-49
2022/07/06 02:32:55;;;;;;;9.98;1.88;;;;;;;21.84;43.30;99166.22;4956211;29;20023;-50
2022/07/06 02:35:21;;;;;;;9.23;1.85;;;;;;;21.84;42.77;99176.91;4954711;29;20051;-50
2022/07/06 02:37:46;;;;;;;22.65;2.17;;;;;;;21.78;42.94;99183.31;4956059;29;20027;-49
2022/07/06 02:40:12;;;;;;;10.45;1.90;;;;;;;21.69;42.96;99181.16;4954746;29;20062;-49
2022/07/06 02:42:38;;;;;;;11.68;2.00;;;;;;;21.72;42.97;99183.28;4954787;29;20050;-50
2022/07/06 02:45:04;;;;;;;18.23;2.20;;;;;;;21.69;42.89;99181.16;4954679;29;20031;-50
2022/07/06 02:47:30;;;;;;;10.43;1.60;;;;;;;21.62;42.87;99187.78;4954969;29;20122;-49
2022/07/06 02:49:56;;;;;;;7.32;1.83;;;;;;;21.56;42.59;99197.63;4953398;28;20114;-49
2022/07/06 02:52:22;;;;;;;11.00;2.08;;;;;;;21.44;43.23;99192.50;4954532;29;20038;-49
2022/07/06 02:54:48;;;;;;;11.70;2.20;;;;;;;21.34;43.06;99193.22;4955866;28;20027;-50
2022/07/06 02:57:15;;;;;;;10.63;1.60;;;;;;;21.22;43.09;99186.47;4954489;29;20039;-49
2022/07/06 02:59:41;;;;;;;7.95;1.58;;;;;;;21.11;43.43;99189.09;4955654;28;20630;-49
2022/07/06 03:02:07;;;;;;;11.77;1.70;;;;;;;21.06;43.71;99191.72;4954415;29;20485;-49
2022/07/06 03:04:33;;;;;;;14.60;2.30;;;;;;;21.10;43.61;99187.47;4954418;29;20031;-50
2022/07/06 03:06:59;;;;;;;5.45;1.42;;;;;;;21.12;43.64;99190.69;4954341;29;20038;-49
2022/07/06 03:09:26;;;;;;;4.95;1.50;;;;;;;21.12;43.75;99200.56;4955591;28;20027;-50
2022/07/06 03:11:52;;;;;;;6.65;1.20;;;;;;;21.10;43.70;99206.16;4955517;28;20027;-49
2022/07/06 03:14:17;;;;;;;10.40;1.95;;;;;;;21.07;43.73;99203.22;4955503;28;20126;-50
2022/07/06 03:16:43;;;;;;;11.05;1.73;;;;;;;20.99;43.84;99212.50;4954101;29;20027;-49
2022/07/06 03:19:09;;;;;;;17.30;1.92;;;;;;;20.87;43.93;99214.53;4955345;28;20395;-49
2022/07/06 03:21:35;;;;;;;18.30;2.25;;;;;;;20.83;44.38;99213.44;4955339;29;20023;-49
2022/07/06 03:24:00;;;;;;;6.20;1.40;;;;;;;20.78;44.37;99218.72;4955311;28;20594;-49
2022/07/06 03:26:26;;;;;;;12.43;1.40;;;;;;;20.74;44.49;99216.56;4955519;29;20032;-49
2022/07/06 03:28:52;;;;;;;9.63;1.65;;;;;;;20.71;44.74;99216.25;4953941;29;20078;-49
2022/07/06 03:31:18;;;;;;;12.75;1.98;;;;;;;20.76;44.91;99213.63;4955118;28;20027;-49
2022/07/06 03:33:43;;;;;;;8.85;2.05;;;;;;;20.85;44.50;99214.78;4954854;28;20042;-50
2022/07/06 03:36:09;;;;;;;10.88;2.13;;;;;;;20.85;44.65;99208.66;4953793;29;20405;-49
2022/07/06 03:38:36;;;;;;;6.50;1.50;;;;;;;20.81;44.68;99213.69;4953686;29;20023;-49
2022/07/06 03:41:02;;;;;;;10.85;1.65;;;;;;;20.84;44.59;99218.50;4953656;29;20039;-50
2022/07/06 03:43:27;;;;;;;7.10;1.30;;;;;;;20.85;44.44;99222.00;4954958;28;20027;-49
2022/07/06 03:45:53;;;;;;;8.25;1.42;;;;;;;20.84;44.23;99226.50;4953609;29;20054;-49
2022/07/06 03:48:19;;;;;;;6.07;1.70;;;;;;;20.70;44.44;99223.44;4954870;29;20055;-49
2022/07/06 03:50:44;;;;;;;6.88;1.70;;;;;;;20.64;44.60;99226.31;4954795;28;20030;-49
2022/07/06 03:53:10;;;;;;;5.43;1.48;;;;;;;20.57;44.85;99229.19;4954744;29;20027;-49
2022/07/06 03:55:36;;;;;;;7.70;2.13;;;;;;;20.58;45.02;99225.44;4954722;29;20019;-49
2022/07/06 03:58:01;;;;;;;6.72;1.60;;;;;;;20.58;44.88;99227.31;4953358;29;20489;-50
2022/07/06 04:00:27;;;;;;;5.32;1.45;;;;;;;20.50;45.10;99223.22;4954244;28;20027;-49
2022/07/06 04:02:53;;;;;;;14.10;1.50;;;;;;;20.53;45.24;99225.41;4954653;28;20059;-50
2022/07/06 04:05:21;;;;;;;12.75;1.90;;;;;;;20.62;45.02;99225.78;4954504;28;20105;-50
2022/07/06 04:07:49;;;;;;;7.60;1.63;;;;;;;20.87;44.62;99220.66;4954551;28;20493;-49
2022/07/06 04:10:16;;;;;;;9.70;1.75;;;;;;;21.10;43.74;99222.16;4954433;28;20050;-50
2022/07/06 04:12:46;;;;;;;9.85;1.65;;;;;;;21.19;43.78;99222.50;4953161;29;20030;-50
2022/07/06 04:15:12;;;;;;;11.32;1.60;;;;;;;21.20;43.67;99220.63;4953090;29;20057;-49
2022/07/06 04:17:54;;;;;;;8.27;1.60;;;;;;;21.13;43.67;99223.53;4954408;28;20071;-49
2022/07/06 04:20:20;;;;;;;14.20;2.00;;;;;;;21.09;43.90;99225.09;4953039;29;20058;-49
2022/07/06 04:22:47;;;;;;;9.40;2.08;;;;;;;21.14;43.91;99222.47;4953042;29;20033;-50
2022/07/06 04:25:12;;;;;;;16.88;2.22;;;;;;;21.14;43.73;99227.78;4954177;28;20054;-50
2022/07/06 04:27:38;;;;;;;11.20;1.98;;;;;;;21.06;43.65;99225.59;4954157;28;20066;-49
2022/07/06 04:30:05;;;;;;;8.70;1.63;;;;;;;21.19;43.64;99222.50;4954175;29;20034;-49
2022/07/06 04:32:31;;;;;;;15.18;1.95;;;;;;;21.96;42.54;99219.47;4952826;29;20127;-49
2022/07/06 04:34:57;;;;;;;7.07;1.77;;;;;;;22.92;40.50;99218.84;4953791;29;20090;-48
2022/07/06 04:37:23;;;;;;;12.10;2.17;;;;;;;23.75;38.67;99211.44;4954132;28;20098;-49
2022/07/06 04:39:49;;;;;;;12.50;2.50;;;;;;;24.31;37.62;99218.44;4954020;28;20031;-49
2022/07/06 04:42:14;;;;;;;10.27;1.90;;;;;;;24.67;36.94;99213.66;4952733;29;20019;-50
2022/07/06 04:44:40;;;;;;;5.95;1.45;;;;;;;24.91;36.56;99204.84;4954018;29;20119;-50
2022/07/06 04:47:06;;;;;;;16.98;2.97;;;;;;;24.91;36.51;99208.38;4953917;29;20082;-50
2022/07/06 04:49:32;;;;;;;21.58;2.83;;;;;;;24.95;36.54;99213.16;4953930;28;20063;-49
2022/07/06 04:51:58;;;;;;;14.57;2.00;;;;;;;25.03;36.01;99209.84;4953873;28;20023;-50
2022/07/06 04:54:23;;;;;;;16.77;2.05;;;;;;;25.28;35.67;99204.28;4953853;28;20397;-50
2022/07/06 04:56:49;;;;;;;10.45;1.92;;;;;;;25.65;34.89;99210.06;4953792;29;20023;-49
2022/07/06 04:59:15;;;;;;;15.23;1.98;;;;;;;26.36;34.17;99205.66;4953707;28;20026;-50
2022/07/06 05:01:41;;;;;;;6.65;1.73;;;;;;;27.02;32.59;99201.09;4953746;28;20082;-49
2022/07/06 05:04:07;;;;;;;5.95;1.40;;;;;;;27.24;32.09;99203.16;4952466;29;20027;-50
2022/07/06 05:06:33;;;;;;;14.98;2.40;;;;;;;27.69;31.41;99205.28;4953757;28;20023;-49
2022/07/06 05:08:59;;;;;;;19.83;3.40;;;;;;;28.36;30.62;99193.84;4953679;28;20122;-50
2022/07/06 05:11:26;;;;;;;11.13;1.60;;;;;;;28.85;29.97;99202.94;4968420;28;20454;-50
2022/07/06 05:13:52;;;;;;;11.65;3.08;;;;;;;29.05;29.14;99211.63;4957453;28;20054;-49
2022/07/06 05:16:18;;;;;;;12.30;2.20;;;;;;;29.53;28.95;99212.84;4957607;28;20031;-50
2022/07/06 05:18:44;;;;;;;11.80;2.72;;;;;;;29.97;28.34;99208.34;4957518;28;20560;-50
2022/07/06 05:21:10;;;;;;;13.35;1.90;;;;;;;30.32;27.26;99211.09;4957554;28;20413;-50
2022/07/06 05:23:35;;;;;;;10.73;1.90;;;;;;;30.65;26.82;99198.66;4957518;28;20046;-49
2022/07/06 05:26:01;;;;;;;10.38;2.40;;;;;;;31.05;26.39;99201.13;4957373;29;20027;-50
2022/07/06 05:28:27;;;;;;;9.00;1.67;;;;;;;30.89;26.33;99207.38;4957462;28;20036;-49
2022/07/06 05:30:53;;;;;;;6.55;1.83;;;;;;;31.12;25.76;99208.75;4957307;28;20086;-50
2022/07/06 05:33:18;;;;;;;14.43;2.65;;;;;;;31.00;26.13;99214.06;4955974;29;20146;-49
2022/07/06 05:35:44;;;;;;;17.08;2.25;;;;;;;31.06;26.10;99221.69;4957123;29;20051;-49
2022/07/06 05:38:10;;;;;;;17.20;2.42;;;;;;;31.51;25.58;99225.06;4957167;28;20024;-50
2022/07/06 05:40:36;;;;;;;10.70;1.50;;;;;;;31.90;25.20;99225.81;4957100;29;20019;-50
2022/07/06 05:43:02;;;;;;;13.77;2.75;;;;;;;32.12;25.20;99230.16;4957444;28;20087;-50
2022/07/06 05:45:28;;;;;;;9.57;2.30;;;;;;;32.23;24.15;99231.34;4955828;29;20046;-50
2022/07/06 05:50:37;;;;;;;12.43;1.70;;;;;;;32.44;23.97;99232.13;4957357;29;20038;-50
2022/07/06 05:53:05;;;;;;;15.20;2.60;;;;;;;32.55;23.90;99229.03;4955645;29;20047;-48
2022/07/06 05:55:31;;;;;;;17.38;2.22;;;;;;;32.67;23.56;99228.28;4956938;28;20047;-50
2022/07/06 05:57:57;;;;;;;13.27;2.65;;;;;;;33.12;23.18;99222.88;4956778;28;20051;-50
2022/07/06 06:00:24;;;;;;;10.40;1.90;;;;;;;33.77;22.38;99220.31;4956835;28;20035;-50
2022/07/06 06:02:51;;;;;;;19.83;2.10;;;;;;;34.16;22.34;99228.88;4956786;28;20050;-50
2022/07/06 06:05:17;;;;;;;10.38;1.70;;;;;;;34.69;21.90;99233.47;4955446;29;20032;-50
2022/07/06 06:07:46;;;;;;;13.45;2.53;;;;;;;34.85;21.14;99231.56;4956740;28;20028;-50
2022/07/06 06:10:13;;;;;;;10.52;1.90;;;;;;;35.11;20.88;99241.97;4956896;28;20102;-50
2022/07/06 06:12:40;;;;;;;31.40;2.97;;;;;;;35.13;21.17;99242.41;4956618;28;20031;-49
2022/07/06 06:15:07;;;;;;;11.27;2.38;;;;;;;35.45;20.54;99242.44;4956559;28;20019;-50
2022/07/06 06:17:33;;;;;;;7.50;2.10;;;;;;;35.69;20.25;99246.16;4955266;29;20109;-50
2022/07/06 06:19:59;;;;;;;11.25;1.65;;;;;;;36.39;19.42;99245.34;4956397;28;20031;-50
2022/07/06 06:22:26;;;;;;;7.03;1.52;;;;;;;36.92;18.71;99239.31;4956326;28;20024;-50
2022/07/06 06:24:52;;;;;;;21.13;2.22;;;;;;;36.79;18.96;99250.44;4956210;28;20050;-50
2022/07/06 06:27:17;;;;;;;20.83;2.20;;;;;;;36.84;19.19;99251.28;4956367;28;20062;-50
2022/07/06 06:29:44;;;;;;;14.43;2.25;;;;;;;36.79;18.84;99260.59;4956299;29;20529;-50
2022/07/06 06:32:13;;;;;;;13.20;1.88;;;;;;;36.53;19.07;99253.81;4956275;28;20033;-49
2022/07/06 06:34:42;;;;;;;22.60;3.30;;;;;;;36.85;19.20;99255.63;4956043;28;20055;-50
2022/07/06 06:37:07;;;;;;;17.77;2.47;;;;;;;36.91;19.00;99267.84;4954934;29;20020;-50
2022/07/06 06:39:33;;;;;;;6.47;1.50;;;;;;;37.11;18.62;99263.94;4956125;28;20497;-50
2022/07/06 06:41:59;;;;;;;4.72;1.10;;;;;;;37.24;18.56;99269.22;4956045;28;20034;-49
2022/07/06 06:44:25;;;;;;;14.75;1.85;;;;;;;37.46;18.76;99264.88;4954783;29;20031;-49
2022/07/06 06:46:52;;;;;;;28.40;3.13;;;;;;;37.93;18.43;99261.72;4954660;29;20019;-50
2022/07/06 06:49:18;;;;;;;36.58;5.25;;;;;;;38.41;18.01;99263.13;4955953;28;20035;-50
2022/07/06 06:51:44;;;;;;;27.00;3.42;;;;;;;38.63;18.24;99267.69;4955829;28;20033;-48
2022/07/06 06:54:10;;;;;;;15.63;2.20;;;;;;;38.69;17.65;99279.91;4955880;28;20023;-48
2022/07/06 06:56:36;;;;;;;8.93;1.30;;;;;;;38.42;17.98;99283.91;4938574;29;20028;-48
2022/07/06 06:59:02;;;;;;;19.40;3.00;;;;;;;38.43;17.79;99282.72;4955713;28;20028;-48
2022/07/06 07:01:29;;;;;;;12.98;1.92;;;;;;;38.47;18.05;99283.56;4956004;29;20448;-48
2022/07/06 07:03:55;;;;;;;21.02;2.90;;;;;;;38.28;18.19;99279.81;4955610;28;20038;-47
2022/07/06 07:06:21;;;;;;;11.95;1.63;;;;;;;38.13;17.64;99291.75;4955631;28;20023;-47
2022/07/06 07:08:48;;;;;;;28.70;2.80;;;;;;;38.32;17.57;99283.38;4970396;28;20035;-48
2022/07/06 07:11:13;;;;;;;23.75;2.28;;;;;;;38.27;17.49;99280.19;4955593;28;20047;-48
2022/07/06 07:13:39;;;;;;;12.93;1.60;;;;;;;38.49;17.46;99284.75;4954202;29;20575;-48
2022/07/06 07:16:06;;;;;;;13.93;1.95;;;;;;;38.67;17.55;99282.25;4954169;29;20034;-48
2022/07/06 07:18:32;;;;;;;20.95;3.53;;;;;;;38.87;17.61;99287.56;4955393;28;20019;-48
2022/07/06 07:20:58;;;;;;;6.47;1.30;;;;;;;38.83;17.32;99284.00;4955337;28;20031;-48
2022/07/06 07:23:24;;;;;;;7.03;1.75;;;;;;;38.92;16.90;99276.25;4954096;29;20083;-48
2022/07/06 07:25:49;;;;;;;10.30;1.70;;;;;;;38.61;17.47;99277.47;4955277;29;20019;-48
2022/07/06 07:28:15;;;;;;;16.15;2.25;;;;;;;38.35;17.69;99281.84;4955192;28;20034;-48
2022/07/06 07:30:41;;;;;;;10.20;2.13;;;;;;;38.01;17.84;99289.97;4953925;29;20087;-48
2022/07/06 07:33:07;;;;;;;6.65;1.15;;;;;;;37.71;18.36;99293.50;4955222;28;20024;-48
2022/07/06 07:35:33;;;;;;;20.85;2.35;;;;;;;37.50;18.57;99288.44;4954162;28;20592;-47
2022/07/06 07:37:58;;;;;;;15.02;1.63;;;;;;;37.03;18.67;99294.22;4955010;28;20061;-51
2022/07/06 07:40:24;;;;;;;10.80;1.48;;;;;;;36.68;19.49;99290.47;4954016;29;20038;-51
2022/07/06 07:42:50;;;;;;;17.27;2.80;;;;;;;36.55;19.26;99287.06;4954958;28;20023;-48
2022/07/06 07:45:16;;;;;;;12.65;2.25;;;;;;;36.47;19.51;99284.56;4953657;29;20539;-48
2022/07/06 07:47:42;;;;;;;12.90;1.98;;;;;;;36.51;19.54;99280.72;4954852;28;20626;-48
2022/07/06 07:50:08;;;;;;;6.40;1.45;;;;;;;36.70;19.41;99282.69;4954838;28;20039;-48
2022/07/06 07:52:34;;;;;;;11.80;2.03;;;;;;;37.17;19.20;99278.13;4954846;28;20058;-48
2022/07/06 07:55:00;;;;;;;20.88;2.55;;;;;;;37.70;18.15;99274.69;4954802;28;20584;-47
2022/07/06 07:57:26;;;;;;;5.07;1.30;;;;;;;37.97;17.95;99279.00;4954678;28;20580;-48
2022/07/06 07:59:52;;;;;;;7.55;1.15;;;;;;;38.89;17.14;99271.50;4954609;29;20121;-48
2022/07/06 08:02:18;;;;;;;9.38;1.30;;;;;;;39.50;16.73;99259.16;4954645;28;20015;-48
2022/07/06 08:04:43;;;;;;;7.38;1.30;;;;;;;40.09;15.94;99255.59;4954560;29;20019;-47
2022/07/06 08:07:09;;;;;;;42.20;5.22;;;;;;;40.68;16.14;99255.44;4954538;28;20031;-49
2022/07/06 08:09:35;;;;;;;5.68;1.63;;;;;;;41.05;15.35;99257.88;4954496;29;20026;-50
2022/07/06 08:12:01;;;;;;;10.57;2.00;;;;;;;41.48;15.19;99265.38;4954434;29;20051;-50
2022/07/06 08:14:27;;;;;;;14.30;1.83;;;;;;;41.88;14.74;99268.88;4954473;28;20052;-50
2022/07/06 08:16:52;;;;;;;12.80;1.60;;;;;;;42.03;14.38;99261.34;4954388;28;20398;-51
2022/07/06 08:19:18;;;;;;;7.05;1.25;;;;;;;42.03;14.31;99264.09;4952938;29;20031;-51
2022/07/06 08:21:44;;;;;;;13.32;1.95;;;;;;;42.06;14.46;99260.56;4954252;28;20023;-52
2022/07/06 08:24:11;;;;;;;9.80;1.33;;;;;;;41.77;14.80;99270.84;4954298;28;20031;-52
2022/07/06 08:26:37;;;;;;;8.05;1.25;;;;;;;41.75;14.71;99271.25;4952921;29;20031;-52
2022/07/06 08:29:03;;;;;;;11.85;1.17;;;;;;;42.01;14.29;99263.69;4954177;28;20109;-53
2022/07/06 08:31:29;;;;;;;7.38;1.40;;;;;;;42.27;14.51;99259.69;4954154;28;20055;-51
2022/07/06 08:33:56;;;;;;;6.22;1.55;;;;;;;42.61;14.05;99265.44;4953990;28;20493;-50
2022/07/06 08:36:23;;;;;;;13.30;1.73;;;;;;;42.60;13.88;99263.06;4954131;28;20023;-52
2022/07/06 08:38:49;;;;;;;5.35;1.10;;;;;;;42.70;13.72;99254.75;4954001;28;20118;-52
2022/07/06 08:41:17;;;;;;;10.10;1.40;;;;;;;42.94;13.66;99257.75;4968810;28;20023;-52
2022/07/06 08:43:43;;;;;;;7.20;1.50;;;;;;;43.09;13.54;99259.22;4936899;29;20033;-51
2022/07/06 08:46:09;;;;;;;8.27;1.40;;;;;;;43.12;13.64;99257.63;4952619;28;20035;-52
2022/07/06 08:48:37;;;;;;;9.45;1.48;;;;;;;42.84;13.70;99253.06;4953974;28;20024;-52
2022/07/06 08:51:05;;;;;;;20.08;2.28;;;;;;;42.80;13.90;99260.59;4952626;29;20033;-51
2022/07/06 08:53:31;;;;;;;6.43;1.10;;;;;;;42.86;14.08;99259.81;4954031;28;20027;-53
2022/07/06 08:55:57;;;;;;;10.25;1.35;;;;;;;42.63;14.01;99257.53;4952524;29;20027;-53
2022/07/06 08:58:27;;;;;;;12.85;1.77;;;;;;;42.67;13.78;99250.03;4953754;28;20397;-52
2022/07/06 09:00:57;;;;;;;11.63;1.50;;;;;;;42.84;13.63;99251.13;4953826;28;20374;-51
2022/07/06 09:03:27;;;;;;;9.73;2.20;;;;;;;42.84;13.55;99251.13;4953999;28;20111;-52
2022/07/06 09:05:59;;;;;;;13.15;1.85;;;;;;;42.74;13.73;99253.94;4953726;28;20561;-52
2022/07/06 09:08:27;;;;;;;12.93;2.50;;;;;;;42.51;13.61;99260.78;4953796;28;20090;-52
2022/07/06 09:10:53;;;;;;;11.88;1.48;;;;;;;42.33;13.48;99263.59;4953688;29;20034;-53
2022/07/06 09:13:19;;;;;;;8.70;1.13;;;;;;;42.27;13.59;99265.19;4968489;28;20027;-52
2022/07/06 09:15:45;;;;;;;8.25;1.52;;;;;;;41.97;13.97;99262.91;4953680;28;20453;-53
2022/07/06 09:18:11;;;;;;;4.30;1.10;;;;;;;41.74;14.05;99255.91;4952282;29;20446;-52
2022/07/06 09:20:37;;;;;;;10.23;1.40;;;;;;;41.58;14.35;99255.50;4952338;29;20396;-51
2022/07/06 09:23:05;;;;;;;10.73;1.55;;;;;;;41.12;14.88;99265.34;4953817;28;20034;-50
2022/07/06 09:25:32;;;;;;;9.50;1.17;;;;;;;41.01;14.63;99262.59;4953532;28;20059;-51
2022/07/06 09:27:59;;;;;;;4.97;1.15;;;;;;;40.83;14.46;99261.75;4953611;28;20047;-51
2022/07/06 09:30:26;;;;;;;10.00;1.63;;;;;;;40.33;14.45;99256.91;4953763;28;20071;-49
2022/07/06 09:32:57;;;;;;;9.15;1.40;;;;;;;39.53;15.31;99255.63;4953621;28;20047;-51
2022/07/06 09:35:24;;;;;;;17.05;1.98;;;;;;;38.98;15.60;99261.06;4968048;28;20122;-52
2022/07/06 09:38:09;;;;;;;6.97;1.58;;;;;;;39.05;16.09;99263.06;4952221;29;20034;-48
2022/07/06 09:40:43;;;;;;;8.38;1.30;;;;;;;39.04;16.09;99264.22;4953441;28;20059;-49
2022/07/06 09:43:20;;;;;;;10.70;1.55;;;;;;;39.15;16.03;99259.63;4953493;28;20034;-49
2022/07/06 09:45:48;;;;;;;9.88;1.73;;;;;;;39.05;16.44;99266.59;4953745;28;20067;-50
2022/07/06 09:48:18;;;;;;;10.95;1.75;;;;;;;39.22;16.43;99267.94;4953332;28;20027;-48
2022/07/06 09:50:59;;;;;;;14.10;1.50;;;;;;;39.25;16.55;99260.88;4953388;28;20066;-49
2022/07/06 09:53:27;;;;;;;8.77;1.23;;;;;;;39.23;16.68;99258.50;4953374;28;20031;-49
2022/07/06 09:56:00;;;;;;;8.93;1.60;;;;;;;39.37;16.46;99263.34;4952020;29;20422;-49
2022/07/06 09:58:26;;;;;;;14.23;2.25;;;;;;;39.43;16.45;99255.56;4954461;28;20027;-50
2022/07/06 10:00:52;;;;;;;11.23;1.45;;;;;;;39.25;17.05;99267.16;4955560;29;20409;-49
2022/07/06 10:03:18;;;;;;;10.82;1.60;;;;;;;39.53;16.82;99261.13;4956834;29;20054;-48
2022/07/06 10:05:47;;;;;;;7.15;1.20;;;;;;;39.49;16.44;99263.06;4955434;29;20031;-49
2022/07/06 10:08:14;;;;;;;11.77;1.42;;;;;;;39.21;16.84;99262.81;4956691;28;20517;-49
2022/07/06 10:10:42;;;;;;;6.97;1.50;;;;;;;39.19;17.10;99254.16;4955367;29;20030;-49
2022/07/06 10:13:09;;;;;;;13.38;1.30;;;;;;;38.99;16.98;99259.09;4955390;29;20035;-48
2022/07/06 10:15:37;;;;;;;8.05;1.67;;;;;;;38.65;17.66;99254.41;4956576;28;20375;-49
2022/07/06 10:18:06;;;;;;;12.73;1.50;;;;;;;38.56;17.58;99265.69;4955184;29;20027;-48
2022/07/06 10:20:36;;;;;;;6.40;1.42;;;;;;;38.22;17.27;99264.06;4955178;29;20024;-49
2022/07/06 10:23:04;;;;;;;6.15;1.13;;;;;;;38.30;17.48;99252.03;4956522;28;20070;-49
2022/07/06 10:25:30;;;;;;;11.77;1.65;;;;;;;38.23;17.17;99273.88;4956293;28;20031;-49
2022/07/06 10:27:56;;;;;;;7.88;1.50;;;;;;;37.97;17.31;99272.69;4955109;29;20019;-49
2022/07/06 10:30:24;;;;;;;9.38;1.33;;;;;;;37.99;17.17;99275.88;4956300;28;20513;-49
2022/07/06 10:32:51;;;;;;;11.40;2.00;;;;;;;37.96;17.60;99266.44;4956262;28;20027;-49
2022/07/06 10:35:19;;;;;;;9.10;1.60;;;;;;;38.04;17.40;99274.78;4954644;29;20417;-49
2022/07/06 10:38:02;;;;;;;10.20;1.23;;;;;;;37.88;17.77;99281.19;4956121;28;20032;-50
2022/07/06 10:43:45;;;;;;;7.68;1.30;;;;;;;37.26;18.19;99273.16;4956380;29;20042;-46
2022/07/06 10:46:15;;;;;;;8.10;1.30;;;;;;;37.03;18.69;99272.34;4954621;29;20032;-47
2022/07/06 10:48:45;;;;;;;7.00;1.10;;;;;;;37.32;18.79;99268.97;4954669;29;20031;-46
2022/07/06 10:51:24;;;;;;;6.38;1.27;;;;;;;37.89;18.31;99258.13;4954702;29;20050;-48
2022/07/06 10:54:04;;;;;;;4.25;1.00;;;;;;;38.02;18.40;99264.16;4954629;29;20036;-49
2022/07/06 10:56:42;;;;;;;7.28;1.35;;;;;;;38.51;18.70;99257.78;4955884;28;20118;-49
2022/07/06 10:59:15;;;;;;;8.05;1.60;;;;;;;38.67;17.34;99254.03;4955778;28;20383;-50
2022/07/06 11:02:22;;;;;;;4.15;1.15;;;;;;;38.53;17.45;99254.66;4955833;28;20031;-49
2022/07/06 11:04:49;;;;;;;13.35;1.50;;;;;;;38.27;18.09;99248.06;4954468;29;20035;-49
2022/07/06 11:07:19;;;;;;;7.22;1.33;;;;;;;38.06;17.72;99264.25;4955593;28;20038;-49
2022/07/06 11:09:59;;;;;;;6.70;1.65;;;;;;;38.19;18.43;99242.88;4954568;28;20031;-49
2022/07/06 11:12:26;;;;;;;6.90;1.15;;;;;;;38.08;18.01;99267.41;4955584;28;20044;-49
2022/07/06 11:14:53;;;;;;;14.25;1.90;;;;;;;37.96;17.89;99244.50;4954409;29;20031;-50
2022/07/06 11:17:19;;;;;;;15.45;1.70;;;;;;;37.83;18.23;99247.84;4955506;28;20038;-49
2022/07/06 11:20:09;;;;;;;14.65;1.80;;;;;;;37.82;18.59;99249.81;4955376;28;20035;-50
2022/07/06 11:22:38;;;;;;;21.02;2.53;;;;;;;37.80;18.51;99240.38;4954173;29;20521;-50
2022/07/06 11:25:05;;;;;;;20.42;1.73;;;;;;;37.87;18.22;99232.25;4955336;28;20024;-50
2022/07/06 11:27:32;;;;;;;15.02;1.88;;;;;;;37.72;18.37;99239.47;4955581;28;20059;-50
2022/07/06 11:29:58;;;;;;;10.77;1.73;;;;;;;37.43;18.46;99227.28;4953981;29;20094;-49
2022/07/06 11:32:26;;;;;;;4.72;1.52;;;;;;;37.57;18.88;99239.25;4955192;29;20020;-50
2022/07/06 11:34:52;;;;;;;11.35;1.80;;;;;;;37.92;18.67;99224.50;4955057;28;20126;-50